sensor_id;sensor_type;location;lat;lon;timestamp;P1;durP1;ratioP1;P2;durP2;ratioP2
1563;SDS011;775;51.958;7.976;2022-07-01T00:01:45;6.33;;;3.03;;
1563;SDS011;775;51.958;7.976;2022-07-01T00:04:12;5.67;;;2.80;;
1563;SDS011;775;51.958;7.976;2022-07-01T00:06:41;5.13;;;2.43;;
1563;SDS011;775;51.958;7.976;2022-07-01T00:09:08;5.63;;;2.83;;
1563;SDS011;775;51.958;7.976;2022-07-01T00:11:35;6.80;;;3.00;;
1563;SDS011;775;51.958;7.976;2022-07-01T00:14:03;5.67;;;2.40;;
1563;SDS011;775;51.958;7.976;2022-07-01T00:16:30;6.60;;;3.10;;
1563;SDS011;775;51.958;7.976;2022-07-01T00:18:58;5.27;;;2.83;;
1563;SDS011;775;51.958;7.976;2022-07-01T00:21:26;7.27;;;3.20;;
1563;SDS011;775;51.958;7.976;2022-07-01T00:23:54;5.67;;;2.77;;
1563;SDS011;775;51.958;7.976;2022-07-01T00:26:21;5.63;;;2.77;;
1563;SDS011;775;51.958;7.976;2022-07-01T00:28:49;6.47;;;2.20;;
1563;SDS011;775;51.958;7.976;2022-07-01T00:31:16;6.10;;;2.30;;
1563;SDS011;775;51.958;7.976;2022-07-01T00:33:43;5.53;;;2.10;;
1563;SDS011;775;51.958;7.976;2022-07-01T00:36:10;5.57;;;2.10;;
1563;SDS011;775;51.958;7.976;2022-07-01T00:38:37;4.90;;;2.13;;
1563;SDS011;775;51.958;7.976;2022-07-01T00:41:06;7.70;;;1.97;;
1563;SDS011;775;51.958;7.976;2022-07-01T00:43:34;5.43;;;2.30;;
1563;SDS011;775;51.958;7.976;2022-07-01T00:46:01;5.57;;;2.00;;
1563;SDS011;775;51.958;7.976;2022-07-01T00:48:29;5.30;;;2.20;;
1563;SDS011;775;51.958;7.976;2022-07-01T00:50:57;6.23;;;2.40;;
1563;SDS011;775;51.958;7.976;2022-07-01T00:53:24;4.97;;;2.00;;
1563;SDS011;775;51.958;7.976;2022-07-01T00:55:51;4.73;;;2.00;;
1563;SDS011;775;51.958;7.976;2022-07-01T00:58:20;4.90;;;1.83;;
1563;SDS011;775;51.958;7.976;2022-07-01T01:00:47;5.93;;;2.40;;
1563;SDS011;775;51.958;7.976;2022-07-01T01:03:14;5.53;;;2.07;;
1563;SDS011;775;51.958;7.976;2022-07-01T01:05:41;4.97;;;1.97;;
1563;SDS011;775;51.958;7.976;2022-07-01T01:08:09;5.20;;;1.70;;
1563;SDS011;775;51.958;7.976;2022-07-01T01:10:36;5.30;;;2.27;;
1563;SDS011;775;51.958;7.976;2022-07-01T01:13:03;5.10;;;1.87;;
1563;SDS011;775;51.958;7.976;2022-07-01T01:15:32;4.20;;;1.63;;
1563;SDS011;775;51.958;7.976;2022-07-01T01:17:59;4.70;;;2.00;;
1563;SDS011;775;51.958;7.976;2022-07-01T01:20:31;5.33;;;2.00;;
1563;SDS011;775;51.958;7.976;2022-07-01T01:22:59;6.47;;;2.10;;
1563;SDS011;775;51.958;7.976;2022-07-01T01:25:26;4.67;;;1.90;;
1563;SDS011;775;51.958;7.976;2022-07-01T01:27:54;5.40;;;2.10;;
1563;SDS011;775;51.958;7.976;2022-07-01T01:30:21;6.20;;;2.00;;
1563;SDS011;775;51.958;7.976;2022-07-01T01:32:48;4.90;;;2.20;;
1563;SDS011;775;51.958;7.976;2022-07-01T01:35:16;5.53;;;2.00;;
1563;SDS011;775;51.958;7.976;2022-07-01T01:37:44;4.57;;;1.97;;
1563;SDS011;775;51.958;7.976;2022-07-01T01:40:12;5.40;;;2.50;;
1563;SDS011;775;51.958;7.976;2022-07-01T01:42:40;8.87;;;2.83;;
1563;SDS011;775;51.958;7.976;2022-07-01T01:45:07;6.20;;;2.53;;
1563;SDS011;775;51.958;7.976;2022-07-01T01:47:35;5.20;;;2.40;;
1563;SDS011;775;51.958;7.976;2022-07-01T01:50:03;5.80;;;2.40;;
1563;SDS011;775;51.958;7.976;2022-07-01T01:52:30;7.00;;;2.70;;
1563;SDS011;775;51.958;7.976;2022-07-01T01:54:59;5.53;;;2.60;;
1563;SDS011;775;51.958;7.976;2022-07-01T01:57:26;6.63;;;3.00;;
1563;SDS011;775;51.958;7.976;2022-07-01T01:59:53;4.70;;;2.50;;
1563;SDS011;775;51.958;7.976;2022-07-01T02:02:20;4.93;;;2.53;;
1563;SDS011;775;51.958;7.976;2022-07-01T02:04:48;7.70;;;2.67;;
1563;SDS011;775;51.958;7.976;2022-07-01T02:07:15;6.30;;;3.33;;
1563;SDS011;775;51.958;7.976;2022-07-01T02:09:42;5.20;;;2.77;;
1563;SDS011;775;51.958;7.976;2022-07-01T02:12:11;5.30;;;2.73;;
1563;SDS011;775;51.958;7.976;2022-07-01T02:14:38;6.30;;;3.17;;
1563;SDS011;775;51.958;7.976;2022-07-01T02:17:05;6.03;;;3.00;;
1563;SDS011;775;51.958;7.976;2022-07-01T02:19:32;5.80;;;3.03;;
1563;SDS011;775;51.958;7.976;2022-07-01T02:21:59;6.73;;;3.67;;
1563;SDS011;775;51.958;7.976;2022-07-01T02:24:27;7.97;;;3.90;;
1563;SDS011;775;51.958;7.976;2022-07-01T02:26:54;6.13;;;3.40;;
1563;SDS011;775;51.958;7.976;2022-07-01T02:29:22;6.80;;;4.10;;
1563;SDS011;775;51.958;7.976;2022-07-01T02:31:49;9.33;;;5.73;;
1563;SDS011;775;51.958;7.976;2022-07-01T02:34:17;7.90;;;4.17;;
1563;SDS011;775;51.958;7.976;2022-07-01T02:36:44;13.30;;;4.67;;
1563;SDS011;775;51.958;7.976;2022-07-01T02:39:11;8.00;;;5.00;;
1563;SDS011;775;51.958;7.976;2022-07-01T02:41:38;7.90;;;5.00;;
1563;SDS011;775;51.958;7.976;2022-07-01T02:44:19;9.13;;;5.90;;
1563;SDS011;775;51.958;7.976;2022-07-01T02:46:48;8.63;;;5.47;;
1563;SDS011;775;51.958;7.976;2022-07-01T02:49:15;10.23;;;6.57;;
1563;SDS011;775;51.958;7.976;2022-07-01T02:51:42;8.30;;;5.40;;
1563;SDS011;775;51.958;7.976;2022-07-01T02:54:09;11.97;;;6.50;;
1563;SDS011;775;51.958;7.976;2022-07-01T02:56:36;7.40;;;5.30;;
1563;SDS011;775;51.958;7.976;2022-07-01T02:59:04;9.07;;;6.00;;
1563;SDS011;775;51.958;7.976;2022-07-01T03:01:31;10.10;;;6.60;;
1563;SDS011;775;51.958;7.976;2022-07-01T03:03:59;10.67;;;7.57;;
1563;SDS011;775;51.958;7.976;2022-07-01T03:06:27;9.50;;;6.53;;
1563;SDS011;775;51.958;7.976;2022-07-01T03:08:54;9.00;;;6.50;;
1563;SDS011;775;51.958;7.976;2022-07-01T03:11:23;8.97;;;6.53;;
1563;SDS011;775;51.958;7.976;2022-07-01T03:13:50;10.70;;;8.17;;
1563;SDS011;775;51.958;7.976;2022-07-01T03:16:17;10.23;;;8.23;;
1563;SDS011;775;51.958;7.976;2022-07-01T03:18:44;12.87;;;8.23;;
1563;SDS011;775;51.958;7.976;2022-07-01T03:21:13;10.90;;;7.80;;
1563;SDS011;775;51.958;7.976;2022-07-01T03:23:40;11.70;;;8.07;;
1563;SDS011;775;51.958;7.976;2022-07-01T03:26:07;9.77;;;7.50;;
1563;SDS011;775;51.958;7.976;2022-07-01T03:28:35;9.60;;;6.83;;
1563;SDS011;775;51.958;7.976;2022-07-01T03:31:02;11.93;;;8.20;;
1563;SDS011;775;51.958;7.976;2022-07-01T03:33:29;16.33;;;8.33;;
1563;SDS011;775;51.958;7.976;2022-07-01T03:35:56;13.63;;;8.27;;
1563;SDS011;775;51.958;7.976;2022-07-01T03:38:25;13.10;;;8.47;;
1563;SDS011;775;51.958;7.976;2022-07-01T03:40:52;12.30;;;8.40;;
1563;SDS011;775;51.958;7.976;2022-07-01T03:43:19;12.23;;;7.73;;
1563;SDS011;775;51.958;7.976;2022-07-01T03:45:46;11.03;;;7.70;;
1563;SDS011;775;51.958;7.976;2022-07-01T03:48:13;11.30;;;8.03;;
1563;SDS011;775;51.958;7.976;2022-07-01T03:50:41;13.20;;;8.67;;
1563;SDS011;775;51.958;7.976;2022-07-01T03:53:08;13.50;;;9.83;;
1563;SDS011;775;51.958;7.976;2022-07-01T03:55:55;12.27;;;8.00;;
1563;SDS011;775;51.958;7.976;2022-07-01T03:58:22;12.20;;;9.10;;
1563;SDS011;775;51.958;7.976;2022-07-01T04:00:49;12.17;;;8.10;;
1563;SDS011;775;51.958;7.976;2022-07-01T04:03:16;11.37;;;8.20;;
1563;SDS011;775;51.958;7.976;2022-07-01T04:05:43;11.80;;;8.30;;
1563;SDS011;775;51.958;7.976;2022-07-01T04:08:11;13.80;;;9.20;;
1563;SDS011;775;51.958;7.976;2022-07-01T04:10:39;11.73;;;8.17;;
1563;SDS011;775;51.958;7.976;2022-07-01T04:13:09;12.37;;;8.53;;
1563;SDS011;775;51.958;7.976;2022-07-01T04:15:36;13.20;;;9.07;;
1563;SDS011;775;51.958;7.976;2022-07-01T04:18:03;12.93;;;8.83;;
1563;SDS011;775;51.958;7.976;2022-07-01T04:20:30;12.60;;;10.00;;
1563;SDS011;775;51.958;7.976;2022-07-01T04:22:57;11.90;;;8.63;;
1563;SDS011;775;51.958;7.976;2022-07-01T04:25:24;13.20;;;9.73;;
1563;SDS011;775;51.958;7.976;2022-07-01T04:27:52;17.83;;;11.43;;
1563;SDS011;775;51.958;7.976;2022-07-01T04:30:21;15.10;;;10.13;;
1563;SDS011;775;51.958;7.976;2022-07-01T04:32:48;17.47;;;12.03;;
1563;SDS011;775;51.958;7.976;2022-07-01T04:35:15;15.37;;;11.03;;
1563;SDS011;775;51.958;7.976;2022-07-01T04:37:43;15.20;;;10.97;;
1563;SDS011;775;51.958;7.976;2022-07-01T04:40:10;15.07;;;10.93;;
1563;SDS011;775;51.958;7.976;2022-07-01T04:42:38;17.40;;;12.90;;
1563;SDS011;775;51.958;7.976;2022-07-01T04:45:04;14.97;;;10.43;;
1563;SDS011;775;51.958;7.976;2022-07-01T04:47:34;17.33;;;11.20;;
1563;SDS011;775;51.958;7.976;2022-07-01T04:50:01;17.90;;;13.20;;
1563;SDS011;775;51.958;7.976;2022-07-01T04:52:28;18.17;;;12.30;;
1563;SDS011;775;51.958;7.976;2022-07-01T04:54:55;19.47;;;13.23;;
1563;SDS011;775;51.958;7.976;2022-07-01T04:57:22;18.73;;;12.50;;
1563;SDS011;775;51.958;7.976;2022-07-01T04:59:50;17.73;;;12.63;;
1563;SDS011;775;51.958;7.976;2022-07-01T05:02:17;19.47;;;14.27;;
1563;SDS011;775;51.958;7.976;2022-07-01T05:04:45;18.87;;;13.10;;
1563;SDS011;775;51.958;7.976;2022-07-01T05:07:12;20.90;;;13.83;;
1563;SDS011;775;51.958;7.976;2022-07-01T05:09:54;18.30;;;13.43;;
1563;SDS011;775;51.958;7.976;2022-07-01T05:12:21;19.53;;;13.10;;
1563;SDS011;775;51.958;7.976;2022-07-01T05:14:48;22.03;;;15.47;;
1563;SDS011;775;51.958;7.976;2022-07-01T05:17:16;17.70;;;12.73;;
1563;SDS011;775;51.958;7.976;2022-07-01T05:19:43;20.00;;;14.40;;
1563;SDS011;775;51.958;7.976;2022-07-01T05:22:29;20.53;;;13.80;;
1563;SDS011;775;51.958;7.976;2022-07-01T05:24:56;19.50;;;13.70;;
1563;SDS011;775;51.958;7.976;2022-07-01T05:27:24;18.90;;;14.00;;
1563;SDS011;775;51.958;7.976;2022-07-01T05:29:51;20.00;;;13.50;;
1563;SDS011;775;51.958;7.976;2022-07-01T05:32:18;19.73;;;12.37;;
1563;SDS011;775;51.958;7.976;2022-07-01T05:34:45;16.37;;;12.23;;
1563;SDS011;775;51.958;7.976;2022-07-01T05:37:13;16.87;;;12.97;;
1563;SDS011;775;51.958;7.976;2022-07-01T05:39:44;15.93;;;12.53;;
1563;SDS011;775;51.958;7.976;2022-07-01T05:42:11;16.57;;;12.97;;
1563;SDS011;775;51.958;7.976;2022-07-01T05:44:38;18.90;;;12.00;;
1563;SDS011;775;51.958;7.976;2022-07-01T05:47:06;15.80;;;11.13;;
1563;SDS011;775;51.958;7.976;2022-07-01T05:49:34;15.80;;;12.57;;
1563;SDS011;775;51.958;7.976;2022-07-01T05:52:02;15.37;;;10.40;;
1563;SDS011;775;51.958;7.976;2022-07-01T05:54:29;17.43;;;11.00;;
1563;SDS011;775;51.958;7.976;2022-07-01T05:56:57;16.30;;;12.30;;
1563;SDS011;775;51.958;7.976;2022-07-01T05:59:24;14.57;;;10.97;;
1563;SDS011;775;51.958;7.976;2022-07-01T06:01:52;16.17;;;10.90;;
1563;SDS011;775;51.958;7.976;2022-07-01T06:04:19;14.60;;;10.97;;
1563;SDS011;775;51.958;7.976;2022-07-01T06:06:46;16.63;;;12.60;;
1563;SDS011;775;51.958;7.976;2022-07-01T06:09:13;15.57;;;11.40;;
1563;SDS011;775;51.958;7.976;2022-07-01T06:11:40;15.00;;;10.33;;
1563;SDS011;775;51.958;7.976;2022-07-01T06:14:09;13.40;;;9.87;;
1563;SDS011;775;51.958;7.976;2022-07-01T06:16:36;13.80;;;10.90;;
1563;SDS011;775;51.958;7.976;2022-07-01T06:19:03;13.73;;;9.90;;
1563;SDS011;775;51.958;7.976;2022-07-01T06:21:31;12.47;;;9.03;;
1563;SDS011;775;51.958;7.976;2022-07-01T06:23:58;14.20;;;9.60;;
1563;SDS011;775;51.958;7.976;2022-07-01T06:26:25;15.60;;;9.90;;
1563;SDS011;775;51.958;7.976;2022-07-01T06:28:53;14.90;;;8.70;;
1563;SDS011;775;51.958;7.976;2022-07-01T06:31:21;15.10;;;10.50;;
1563;SDS011;775;51.958;7.976;2022-07-01T06:33:49;14.03;;;10.80;;
1563;SDS011;775;51.958;7.976;2022-07-01T06:36:16;12.30;;;8.70;;
1563;SDS011;775;51.958;7.976;2022-07-01T06:38:44;14.07;;;10.60;;
1563;SDS011;775;51.958;7.976;2022-07-01T06:41:11;12.50;;;8.67;;
1563;SDS011;775;51.958;7.976;2022-07-01T06:43:53;14.47;;;9.73;;
1563;SDS011;775;51.958;7.976;2022-07-01T06:46:22;11.90;;;8.63;;
1563;SDS011;775;51.958;7.976;2022-07-01T06:48:49;14.20;;;9.40;;
1563;SDS011;775;51.958;7.976;2022-07-01T06:51:17;13.93;;;9.37;;
1563;SDS011;775;51.958;7.976;2022-07-01T06:53:44;12.80;;;8.77;;
1563;SDS011;775;51.958;7.976;2022-07-01T06:56:12;14.90;;;9.87;;
1563;SDS011;775;51.958;7.976;2022-07-01T06:58:39;10.93;;;8.27;;
1563;SDS011;775;51.958;7.976;2022-07-01T07:01:06;11.43;;;7.70;;
1563;SDS011;775;51.958;7.976;2022-07-01T07:03:35;12.40;;;8.20;;
1563;SDS011;775;51.958;7.976;2022-07-01T07:06:02;11.97;;;8.50;;
1563;SDS011;775;51.958;7.976;2022-07-01T07:08:30;12.00;;;7.80;;
1563;SDS011;775;51.958;7.976;2022-07-01T07:10:58;12.50;;;7.90;;
1563;SDS011;775;51.958;7.976;2022-07-01T07:13:25;10.00;;;7.20;;
1563;SDS011;775;51.958;7.976;2022-07-01T07:15:52;10.40;;;6.87;;
1563;SDS011;775;51.958;7.976;2022-07-01T07:18:20;12.47;;;8.63;;
1563;SDS011;775;51.958;7.976;2022-07-01T07:20:48;9.90;;;6.60;;
1563;SDS011;775;51.958;7.976;2022-07-01T07:23:16;11.90;;;7.30;;
1563;SDS011;775;51.958;7.976;2022-07-01T07:25:43;11.67;;;7.00;;
1563;SDS011;775;51.958;7.976;2022-07-01T07:28:10;8.90;;;6.40;;
1563;SDS011;775;51.958;7.976;2022-07-01T07:30:37;11.07;;;6.63;;
1563;SDS011;775;51.958;7.976;2022-07-01T07:33:04;10.93;;;6.03;;
1563;SDS011;775;51.958;7.976;2022-07-01T07:35:31;10.63;;;6.47;;
1563;SDS011;775;51.958;7.976;2022-07-01T07:38:00;9.77;;;6.93;;
1563;SDS011;775;51.958;7.976;2022-07-01T07:40:27;10.70;;;7.10;;
1563;SDS011;775;51.958;7.976;2022-07-01T07:42:54;11.07;;;6.57;;
1563;SDS011;775;51.958;7.976;2022-07-01T07:45:21;11.10;;;7.60;;
1563;SDS011;775;51.958;7.976;2022-07-01T07:47:49;13.80;;;7.63;;
1563;SDS011;775;51.958;7.976;2022-07-01T07:50:19;11.03;;;7.00;;
1563;SDS011;775;51.958;7.976;2022-07-01T07:52:46;13.03;;;7.87;;
1563;SDS011;775;51.958;7.976;2022-07-01T07:55:15;12.50;;;7.00;;
1563;SDS011;775;51.958;7.976;2022-07-01T07:57:42;10.53;;;7.33;;
1563;SDS011;775;51.958;7.976;2022-07-01T08:00:10;10.43;;;7.03;;
1563;SDS011;775;51.958;7.976;2022-07-01T08:02:37;10.30;;;6.57;;
1563;SDS011;775;51.958;7.976;2022-07-01T08:05:05;11.20;;;7.20;;
1563;SDS011;775;51.958;7.976;2022-07-01T08:07:34;9.53;;;6.90;;
1563;SDS011;775;51.958;7.976;2022-07-01T08:10:01;10.20;;;6.73;;
1563;SDS011;775;51.958;7.976;2022-07-01T08:12:30;9.77;;;6.83;;
1563;SDS011;775;51.958;7.976;2022-07-01T08:14:57;9.63;;;6.13;;
1563;SDS011;775;51.958;7.976;2022-07-01T08:17:25;11.23;;;6.80;;
1563;SDS011;775;51.958;7.976;2022-07-01T08:19:52;8.60;;;5.93;;
1563;SDS011;775;51.958;7.976;2022-07-01T08:22:19;9.43;;;6.00;;
1563;SDS011;775;51.958;7.976;2022-07-01T08:24:46;10.43;;;6.50;;
1563;SDS011;775;51.958;7.976;2022-07-01T08:27:14;10.60;;;6.87;;
1563;SDS011;775;51.958;7.976;2022-07-01T08:29:42;10.43;;;6.10;;
1563;SDS011;775;51.958;7.976;2022-07-01T08:32:09;8.70;;;6.10;;
1563;SDS011;775;51.958;7.976;2022-07-01T08:34:37;9.27;;;6.67;;
1563;SDS011;775;51.958;7.976;2022-07-01T08:37:04;11.13;;;6.93;;
1563;SDS011;775;51.958;7.976;2022-07-01T08:39:31;10.10;;;7.27;;
1563;SDS011;775;51.958;7.976;2022-07-01T08:41:58;11.00;;;7.10;;
1563;SDS011;775;51.958;7.976;2022-07-01T08:44:25;10.37;;;6.57;;
1563;SDS011;775;51.958;7.976;2022-07-01T08:46:54;9.03;;;6.07;;
1563;SDS011;775;51.958;7.976;2022-07-01T08:49:21;11.33;;;6.73;;
1563;SDS011;775;51.958;7.976;2022-07-01T08:51:48;9.43;;;5.30;;
1563;SDS011;775;51.958;7.976;2022-07-01T08:54:16;11.67;;;5.97;;
1563;SDS011;775;51.958;7.976;2022-07-01T08:56:43;8.57;;;5.33;;
1563;SDS011;775;51.958;7.976;2022-07-01T08:59:11;10.60;;;6.17;;
1563;SDS011;775;51.958;7.976;2022-07-01T09:01:39;7.50;;;5.00;;
1563;SDS011;775;51.958;7.976;2022-07-01T09:04:14;9.47;;;5.70;;
1563;SDS011;775;51.958;7.976;2022-07-01T09:06:41;9.50;;;5.03;;
1563;SDS011;775;51.958;7.976;2022-07-01T09:09:12;6.90;;;4.27;;
1563;SDS011;775;51.958;7.976;2022-07-01T09:11:43;9.07;;;5.03;;
1563;SDS011;775;51.958;7.976;2022-07-01T09:14:11;9.30;;;5.73;;
1563;SDS011;775;51.958;7.976;2022-07-01T09:16:39;9.00;;;5.97;;
1563;SDS011;775;51.958;7.976;2022-07-01T09:19:07;9.60;;;4.70;;
1563;SDS011;775;51.958;7.976;2022-07-01T09:21:36;10.23;;;4.93;;
1563;SDS011;775;51.958;7.976;2022-07-01T09:24:04;8.33;;;4.37;;
1563;SDS011;775;51.958;7.976;2022-07-01T09:26:31;10.20;;;5.40;;
1563;SDS011;775;51.958;7.976;2022-07-01T09:28:58;8.20;;;5.03;;
1563;SDS011;775;51.958;7.976;2022-07-01T09:31:30;7.40;;;4.90;;
1563;SDS011;775;51.958;7.976;2022-07-01T09:34:02;9.33;;;4.50;;
1563;SDS011;775;51.958;7.976;2022-07-01T09:36:30;7.97;;;4.53;;
1563;SDS011;775;51.958;7.976;2022-07-01T09:39:03;8.10;;;4.80;;
1563;SDS011;775;51.958;7.976;2022-07-01T09:41:37;10.13;;;4.30;;
1563;SDS011;775;51.958;7.976;2022-07-01T09:44:06;11.00;;;4.47;;
1563;SDS011;775;51.958;7.976;2022-07-01T09:46:33;7.27;;;4.70;;
1563;SDS011;775;51.958;7.976;2022-07-01T09:49:00;7.90;;;4.57;;
1563;SDS011;775;51.958;7.976;2022-07-01T09:51:28;6.87;;;4.13;;
1563;SDS011;775;51.958;7.976;2022-07-01T09:53:55;8.27;;;4.70;;
1563;SDS011;775;51.958;7.976;2022-07-01T09:56:24;9.20;;;4.00;;
1563;SDS011;775;51.958;7.976;2022-07-01T09:58:51;7.30;;;4.00;;
1563;SDS011;775;51.958;7.976;2022-07-01T10:01:18;8.00;;;3.70;;
1563;SDS011;775;51.958;7.976;2022-07-01T10:03:46;8.20;;;4.13;;
1563;SDS011;775;51.958;7.976;2022-07-01T10:06:20;9.00;;;4.13;;
1563;SDS011;775;51.958;7.976;2022-07-01T10:08:56;6.87;;;3.70;;
1563;SDS011;775;51.958;7.976;2022-07-01T10:11:31;6.00;;;3.17;;
1563;SDS011;775;51.958;7.976;2022-07-01T10:14:07;6.93;;;3.10;;
1563;SDS011;775;51.958;7.976;2022-07-01T10:16:34;6.27;;;3.37;;
1563;SDS011;775;51.958;7.976;2022-07-01T10:19:06;6.13;;;3.00;;
1563;SDS011;775;51.958;7.976;2022-07-01T10:21:33;5.50;;;3.20;;
1563;SDS011;775;51.958;7.976;2022-07-01T10:26:49;6.57;;;2.53;;
1563;SDS011;775;51.958;7.976;2022-07-01T10:29:26;5.70;;;2.60;;
1563;SDS011;775;51.958;7.976;2022-07-01T10:31:54;5.60;;;2.17;;
1563;SDS011;775;51.958;7.976;2022-07-01T10:34:26;6.87;;;3.27;;
1563;SDS011;775;51.958;7.976;2022-07-01T10:37:00;4.20;;;1.90;;
1563;SDS011;775;51.958;7.976;2022-07-01T10:39:27;4.87;;;2.20;;
1563;SDS011;775;51.958;7.976;2022-07-01T10:41:57;4.33;;;1.90;;
1563;SDS011;775;51.958;7.976;2022-07-01T10:44:25;4.87;;;1.93;;
1563;SDS011;775;51.958;7.976;2022-07-01T10:46:53;4.80;;;1.60;;
1563;SDS011;775;51.958;7.976;2022-07-01T10:52:09;8.50;;;2.73;;
1563;SDS011;775;51.958;7.976;2022-07-01T10:54:46;4.30;;;1.70;;
1563;SDS011;775;51.958;7.976;2022-07-01T11:02:47;4.70;;;1.77;;
1563;SDS011;775;51.958;7.976;2022-07-01T11:05:14;5.70;;;2.33;;
1563;SDS011;775;51.958;7.976;2022-07-01T11:07:42;4.30;;;1.90;;
1563;SDS011;775;51.958;7.976;2022-07-01T11:10:11;6.40;;;2.27;;
1563;SDS011;775;51.958;7.976;2022-07-01T11:12:39;5.13;;;2.40;;
1563;SDS011;775;51.958;7.976;2022-07-01T11:15:09;4.20;;;1.50;;
1563;SDS011;775;51.958;7.976;2022-07-01T11:17:41;6.17;;;1.43;;
1563;SDS011;775;51.958;7.976;2022-07-01T11:20:10;5.27;;;2.10;;
1563;SDS011;775;51.958;7.976;2022-07-01T11:22:37;4.93;;;1.70;;
1563;SDS011;775;51.958;7.976;2022-07-01T11:25:06;3.90;;;1.40;;
1563;SDS011;775;51.958;7.976;2022-07-01T11:27:34;5.43;;;1.80;;
1563;SDS011;775;51.958;7.976;2022-07-01T11:30:03;5.93;;;1.77;;
1563;SDS011;775;51.958;7.976;2022-07-01T11:32:31;4.83;;;1.90;;
1563;SDS011;775;51.958;7.976;2022-07-01T11:34:59;4.30;;;1.93;;
1563;SDS011;775;51.958;7.976;2022-07-01T11:37:28;4.87;;;1.97;;
1563;SDS011;775;51.958;7.976;2022-07-01T11:40:14;4.17;;;1.90;;
1563;SDS011;775;51.958;7.976;2022-07-01T11:42:42;4.90;;;2.03;;
1563;SDS011;775;51.958;7.976;2022-07-01T11:45:12;5.50;;;1.90;;
1563;SDS011;775;51.958;7.976;2022-07-01T11:47:49;6.70;;;2.10;;
1563;SDS011;775;51.958;7.976;2022-07-01T11:50:16;4.93;;;2.20;;
1563;SDS011;775;51.958;7.976;2022-07-01T11:52:44;6.40;;;1.80;;
1563;SDS011;775;51.958;7.976;2022-07-01T11:55:11;4.27;;;1.73;;
1563;SDS011;775;51.958;7.976;2022-07-01T11:57:39;4.90;;;1.83;;
1563;SDS011;775;51.958;7.976;2022-07-01T12:00:07;4.30;;;1.97;;
1563;SDS011;775;51.958;7.976;2022-07-01T12:02:35;5.07;;;2.00;;
1563;SDS011;775;51.958;7.976;2022-07-01T12:05:02;4.07;;;1.53;;
1563;SDS011;775;51.958;7.976;2022-07-01T12:07:30;4.90;;;1.70;;
1563;SDS011;775;51.958;7.976;2022-07-01T12:09:59;4.00;;;1.50;;
1563;SDS011;775;51.958;7.976;2022-07-01T12:12:27;4.40;;;1.70;;
1563;SDS011;775;51.958;7.976;2022-07-01T12:14:55;6.13;;;1.80;;
1563;SDS011;775;51.958;7.976;2022-07-01T12:17:23;6.70;;;2.80;;
1563;SDS011;775;51.958;7.976;2022-07-01T12:19:51;7.03;;;2.03;;
1563;SDS011;775;51.958;7.976;2022-07-01T12:22:19;4.80;;;1.40;;
1563;SDS011;775;51.958;7.976;2022-07-01T12:24:49;4.40;;;1.60;;
1563;SDS011;775;51.958;7.976;2022-07-01T12:27:19;4.70;;;1.93;;
1563;SDS011;775;51.958;7.976;2022-07-01T12:29:51;4.10;;;1.63;;
1563;SDS011;775;51.958;7.976;2022-07-01T12:32:18;4.60;;;1.73;;
1563;SDS011;775;51.958;7.976;2022-07-01T12:34:48;4.30;;;1.80;;
1563;SDS011;775;51.958;7.976;2022-07-01T12:37:16;6.13;;;1.80;;
1563;SDS011;775;51.958;7.976;2022-07-01T12:39:44;4.50;;;1.80;;
1563;SDS011;775;51.958;7.976;2022-07-01T12:42:20;5.20;;;1.50;;
1563;SDS011;775;51.958;7.976;2022-07-01T12:44:47;3.93;;;1.53;;
1563;SDS011;775;51.958;7.976;2022-07-01T12:47:23;4.00;;;1.50;;
1563;SDS011;775;51.958;7.976;2022-07-01T12:52:34;4.00;;;1.63;;
1563;SDS011;775;51.958;7.976;2022-07-01T12:55:01;4.60;;;1.70;;
1563;SDS011;775;51.958;7.976;2022-07-01T12:57:40;6.70;;;1.80;;
1563;SDS011;775;51.958;7.976;2022-07-01T13:00:08;3.70;;;1.20;;
1563;SDS011;775;51.958;7.976;2022-07-01T13:02:35;5.20;;;1.50;;
1563;SDS011;775;51.958;7.976;2022-07-01T13:05:03;3.80;;;1.30;;
1563;SDS011;775;51.958;7.976;2022-07-01T13:07:30;4.67;;;1.60;;
1563;SDS011;775;51.958;7.976;2022-07-01T13:09:57;4.27;;;1.40;;
1563;SDS011;775;51.958;7.976;2022-07-01T13:12:24;4.67;;;1.50;;
1563;SDS011;775;51.958;7.976;2022-07-01T13:14:53;5.30;;;1.40;;
1563;SDS011;775;51.958;7.976;2022-07-01T13:17:22;5.17;;;1.93;;
1563;SDS011;775;51.958;7.976;2022-07-01T13:19:49;4.00;;;1.30;;
1563;SDS011;775;51.958;7.976;2022-07-01T13:22:16;5.43;;;2.67;;
1563;SDS011;775;51.958;7.976;2022-07-01T13:24:44;3.50;;;0.90;;
1563;SDS011;775;51.958;7.976;2022-07-01T13:27:11;4.80;;;1.40;;
1563;SDS011;775;51.958;7.976;2022-07-01T13:29:38;5.47;;;1.47;;
1563;SDS011;775;51.958;7.976;2022-07-01T13:32:07;4.70;;;1.30;;
1563;SDS011;775;51.958;7.976;2022-07-01T13:34:34;3.50;;;0.93;;
1563;SDS011;775;51.958;7.976;2022-07-01T13:37:01;6.03;;;1.17;;
1563;SDS011;775;51.958;7.976;2022-07-01T13:39:29;3.90;;;1.20;;
1563;SDS011;775;51.958;7.976;2022-07-01T13:41:56;5.33;;;1.20;;
1563;SDS011;775;51.958;7.976;2022-07-01T13:44:23;4.50;;;1.30;;
1563;SDS011;775;51.958;7.976;2022-07-01T13:46:50;3.90;;;1.50;;
1563;SDS011;775;51.958;7.976;2022-07-01T13:49:19;4.60;;;1.23;;
1563;SDS011;775;51.958;7.976;2022-07-01T13:51:46;4.00;;;1.27;;
1563;SDS011;775;51.958;7.976;2022-07-01T13:54:13;3.77;;;1.20;;
1563;SDS011;775;51.958;7.976;2022-07-01T13:56:41;5.10;;;1.30;;
1563;SDS011;775;51.958;7.976;2022-07-01T13:59:10;3.80;;;1.27;;
1563;SDS011;775;51.958;7.976;2022-07-01T14:01:37;4.60;;;0.93;;
1563;SDS011;775;51.958;7.976;2022-07-01T14:04:05;4.10;;;1.00;;
1563;SDS011;775;51.958;7.976;2022-07-01T14:06:33;4.43;;;1.10;;
1563;SDS011;775;51.958;7.976;2022-07-01T14:09:00;3.70;;;0.93;;
1563;SDS011;775;51.958;7.976;2022-07-01T14:11:27;5.13;;;1.10;;
1563;SDS011;775;51.958;7.976;2022-07-01T14:13:55;4.30;;;1.20;;
1563;SDS011;775;51.958;7.976;2022-07-01T14:16:22;5.30;;;1.10;;
1563;SDS011;775;51.958;7.976;2022-07-01T14:18:50;4.40;;;1.00;;
1563;SDS011;775;51.958;7.976;2022-07-01T14:21:17;3.70;;;1.03;;
1563;SDS011;775;51.958;7.976;2022-07-01T14:23:47;6.30;;;1.17;;
1563;SDS011;775;51.958;7.976;2022-07-01T14:26:14;4.33;;;1.30;;
1563;SDS011;775;51.958;7.976;2022-07-01T14:28:42;4.13;;;1.03;;
1563;SDS011;775;51.958;7.976;2022-07-01T14:31:09;4.33;;;1.00;;
1563;SDS011;775;51.958;7.976;2022-07-01T14:33:37;5.47;;;1.13;;
1563;SDS011;775;51.958;7.976;2022-07-01T14:36:04;6.23;;;1.13;;
1563;SDS011;775;51.958;7.976;2022-07-01T14:38:31;3.70;;;1.20;;
1563;SDS011;775;51.958;7.976;2022-07-01T14:41:03;7.80;;;1.00;;
1563;SDS011;775;51.958;7.976;2022-07-01T14:43:30;3.90;;;1.00;;
1563;SDS011;775;51.958;7.976;2022-07-01T14:45:59;3.90;;;1.07;;
1563;SDS011;775;51.958;7.976;2022-07-01T14:48:29;4.93;;;1.10;;
1563;SDS011;775;51.958;7.976;2022-07-01T14:50:56;4.10;;;1.20;;
1563;SDS011;775;51.958;7.976;2022-07-01T14:53:23;3.70;;;1.10;;
1563;SDS011;775;51.958;7.976;2022-07-01T14:55:51;3.40;;;0.83;;
1563;SDS011;775;51.958;7.976;2022-07-01T14:58:19;3.80;;;0.90;;
1563;SDS011;775;51.958;7.976;2022-07-01T15:00:47;4.23;;;1.20;;
1563;SDS011;775;51.958;7.976;2022-07-01T15:03:14;4.00;;;1.10;;
1563;SDS011;775;51.958;7.976;2022-07-01T15:05:41;4.60;;;1.13;;
1563;SDS011;775;51.958;7.976;2022-07-01T15:08:09;6.43;;;2.03;;
1563;SDS011;775;51.958;7.976;2022-07-01T15:10:37;4.93;;;1.17;;
1563;SDS011;775;51.958;7.976;2022-07-01T15:13:04;4.80;;;1.23;;
1563;SDS011;775;51.958;7.976;2022-07-01T15:15:33;3.87;;;1.20;;
1563;SDS011;775;51.958;7.976;2022-07-01T15:18:00;3.63;;;1.10;;
1563;SDS011;775;51.958;7.976;2022-07-01T15:20:27;3.83;;;1.20;;
1563;SDS011;775;51.958;7.976;2022-07-01T15:22:55;4.20;;;1.20;;
1563;SDS011;775;51.958;7.976;2022-07-01T15:25:22;6.20;;;2.00;;
1563;SDS011;775;51.958;7.976;2022-07-01T15:27:50;4.00;;;1.10;;
1563;SDS011;775;51.958;7.976;2022-07-01T15:30:17;4.53;;;1.13;;
1563;SDS011;775;51.958;7.976;2022-07-01T15:32:46;4.10;;;1.20;;
1563;SDS011;775;51.958;7.976;2022-07-01T15:35:13;3.83;;;1.00;;
1563;SDS011;775;51.958;7.976;2022-07-01T15:37:40;5.17;;;1.43;;
1563;SDS011;775;51.958;7.976;2022-07-01T15:40:08;3.47;;;1.00;;
1563;SDS011;775;51.958;7.976;2022-07-01T15:42:35;3.70;;;1.00;;